sensor_id;sensor_type;location;lat;lon;timestamp;temperature;humidity
39021;DHT22;25188;51.958;5.842;2023-02-15T00:01:25;5.30;88.90
39021;DHT22;25188;51.958;5.842;2023-02-15T00:03:51;5.40;89.20
39021;DHT22;25188;51.958;5.842;2023-02-15T00:06:17;5.40;89.30
39021;DHT22;25188;51.958;5.842;2023-02-15T00:08:43;5.30;89.50
39021;DHT22;25188;51.958;5.842;2023-02-15T00:11:10;5.30;89.70
39021;DHT22;25188;51.958;5.842;2023-02-15T00:13:37;5.30;89.90
39021;DHT22;25188;51.958;5.842;2023-02-15T00:16:11;5.30;89.90
39021;DHT22;25188;51.958;5.842;2023-02-15T00:18:38;5.30;90.00
39021;DHT22;25188;51.958;5.842;2023-02-15T00:21:09;5.20;90.00
39021;DHT22;25188;51.958;5.842;2023-02-15T00:23:36;5.20;90.10
39021;DHT22;25188;51.958;5.842;2023-02-15T00:26:12;5.10;90.10
39021;DHT22;25188;51.958;5.842;2023-02-15T00:28:38;5.10;90.20
39021;DHT22;25188;51.958;5.842;2023-02-15T00:31:07;5.00;90.20
39021;DHT22;25188;51.958;5.842;2023-02-15T00:33:34;5.00;90.30
39021;DHT22;25188;51.958;5.842;2023-02-15T00:36:00;5.00;90.30
39021;DHT22;25188;51.958;5.842;2023-02-15T00:38:30;4.90;90.40
39021;DHT22;25188;51.958;5.842;2023-02-15T00:40:58;4.80;90.40
39021;DHT22;25188;51.958;5.842;2023-02-15T00:43:25;4.90;90.50
39021;DHT22;25188;51.958;5.842;2023-02-15T00:45:51;4.90;90.60
39021;DHT22;25188;51.958;5.842;2023-02-15T00:48:17;4.90;90.70
39021;DHT22;25188;51.958;5.842;2023-02-15T00:50:51;4.90;90.70
39021;DHT22;25188;51.958;5.842;2023-02-15T00:53:17;4.80;90.80
39021;DHT22;25188;51.958;5.842;2023-02-15T00:55:42;4.80;90.90
39021;DHT22;25188;51.958;5.842;2023-02-15T00:58:09;4.90;91.00
39021;DHT22;25188;51.958;5.842;2023-02-15T01:00:35;4.80;91.00
39021;DHT22;25188;51.958;5.842;2023-02-15T01:03:01;4.80;91.10
39021;DHT22;25188;51.958;5.842;2023-02-15T01:05:27;4.70;91.20
39021;DHT22;25188;51.958;5.842;2023-02-15T01:07:55;4.70;91.30
39021;DHT22;25188;51.958;5.842;2023-02-15T01:10:21;4.70;91.40
39021;DHT22;25188;51.958;5.842;2023-02-15T01:13:07;4.70;91.60
39021;DHT22;25188;51.958;5.842;2023-02-15T01:15:35;4.70;91.70
39021;DHT22;25188;51.958;5.842;2023-02-15T01:18:01;4.70;91.80
39021;DHT22;25188;51.958;5.842;2023-02-15T01:20:27;4.80;91.90
39021;DHT22;25188;51.958;5.842;2023-02-15T01:22:54;4.70;92.20
39021;DHT22;25188;51.958;5.842;2023-02-15T01:25:22;4.70;92.00
39021;DHT22;25188;51.958;5.842;2023-02-15T01:27:52;4.70;92.10
39021;DHT22;25188;51.958;5.842;2023-02-15T01:30:17;4.70;92.20
39021;DHT22;25188;51.958;5.842;2023-02-15T01:32:43;4.70;92.30
39021;DHT22;25188;51.958;5.842;2023-02-15T01:35:10;4.70;92.30
39021;DHT22;25188;51.958;5.842;2023-02-15T01:37:36;4.70;92.40
39021;DHT22;25188;51.958;5.842;2023-02-15T01:40:07;4.60;92.50
39021;DHT22;25188;51.958;5.842;2023-02-15T01:42:34;4.60;92.60
39021;DHT22;25188;51.958;5.842;2023-02-15T01:45:12;4.60;92.70
39021;DHT22;25188;51.958;5.842;2023-02-15T01:47:47;4.60;92.80
39021;DHT22;25188;51.958;5.842;2023-02-15T01:50:21;4.60;92.80
39021;DHT22;25188;51.958;5.842;2023-02-15T01:53:27;4.60;92.90
39021;DHT22;25188;51.958;5.842;2023-02-15T01:56:24;4.60;93.10
39021;DHT22;25188;51.958;5.842;2023-02-15T01:58:54;4.60;93.10
39021;DHT22;25188;51.958;5.842;2023-02-15T02:01:21;4.60;93.20
39021;DHT22;25188;51.958;5.842;2023-02-15T02:06:19;4.50;93.20
39021;DHT22;25188;51.958;5.842;2023-02-15T02:08:46;4.50;93.30
39021;DHT22;25188;51.958;5.842;2023-02-15T02:11:14;4.50;93.40
39021;DHT22;25188;51.958;5.842;2023-02-15T02:13:41;4.50;93.50
39021;DHT22;25188;51.958;5.842;2023-02-15T02:16:19;4.50;93.60
39021;DHT22;25188;51.958;5.842;2023-02-15T02:21:59;4.50;93.80
39021;DHT22;25188;51.958;5.842;2023-02-15T02:27:39;4.50;93.90
39021;DHT22;25188;51.958;5.842;2023-02-15T02:30:17;4.50;94.00
39021;DHT22;25188;51.958;5.842;2023-02-15T02:33:07;4.40;93.90
39021;DHT22;25188;51.958;5.842;2023-02-15T02:44:14;4.30;94.10
39021;DHT22;25188;51.958;5.842;2023-02-15T02:47:09;4.30;94.10
39021;DHT22;25188;51.958;5.842;2023-02-15T02:49:38;4.30;94.20
39021;DHT22;25188;51.958;5.842;2023-02-15T02:52:31;4.30;94.30
39021;DHT22;25188;51.958;5.842;2023-02-15T02:54:51;4.30;94.30
39021;DHT22;25188;51.958;5.842;2023-02-15T02:57:18;4.30;94.70
39021;DHT22;25188;51.958;5.842;2023-02-15T02:59:46;4.20;94.70
39021;DHT22;25188;51.958;5.842;2023-02-15T03:02:16;4.20;94.50
39021;DHT22;25188;51.958;5.842;2023-02-15T03:04:47;4.20;94.50
39021;DHT22;25188;51.958;5.842;2023-02-15T03:07:20;4.10;94.60
39021;DHT22;25188;51.958;5.842;2023-02-15T03:09:56;4.10;94.70
39021;DHT22;25188;51.958;5.842;2023-02-15T03:12:32;4.20;94.80
39021;DHT22;25188;51.958;5.842;2023-02-15T03:15:06;4.20;94.80
39021;DHT22;25188;51.958;5.842;2023-02-15T03:17:35;4.10;94.80
39021;DHT22;25188;51.958;5.842;2023-02-15T03:20:10;4.10;94.90
39021;DHT22;25188;51.958;5.842;2023-02-15T03:22:46;4.10;94.90
39021;DHT22;25188;51.958;5.842;2023-02-15T03:25:21;4.10;95.00
39021;DHT22;25188;51.958;5.842;2023-02-15T03:27:49;4.00;95.10
39021;DHT22;25188;51.958;5.842;2023-02-15T03:30:17;4.10;95.10
39021;DHT22;25188;51.958;5.842;2023-02-15T03:32:44;4.00;95.00
39021;DHT22;25188;51.958;5.842;2023-02-15T03:35:11;4.00;95.00
39021;DHT22;25188;51.958;5.842;2023-02-15T03:38:00;3.90;95.30
39021;DHT22;25188;51.958;5.842;2023-02-15T03:40:30;3.90;95.10
39021;DHT22;25188;51.958;5.842;2023-02-15T03:46:40;3.90;95.30
39021;DHT22;25188;51.958;5.842;2023-02-15T03:51:46;3.80;95.30
39021;DHT22;25188;51.958;5.842;2023-02-15T03:54:17;3.80;95.40
39021;DHT22;25188;51.958;5.842;2023-02-15T03:57:03;3.80;95.40
39021;DHT22;25188;51.958;5.842;2023-02-15T03:59:47;3.80;95.50
39021;DHT22;25188;51.958;5.842;2023-02-15T04:02:40;3.80;95.50
39021;DHT22;25188;51.958;5.842;2023-02-15T04:05:08;3.70;95.50
39021;DHT22;25188;51.958;5.842;2023-02-15T04:07:33;3.70;95.50
39021;DHT22;25188;51.958;5.842;2023-02-15T04:09:59;3.70;95.60
39021;DHT22;25188;51.958;5.842;2023-02-15T04:12:43;3.70;95.60
39021;DHT22;25188;51.958;5.842;2023-02-15T04:15:12;3.80;95.70
39021;DHT22;25188;51.958;5.842;2023-02-15T04:17:57;3.70;95.80
39021;DHT22;25188;51.958;5.842;2023-02-15T04:20:23;3.60;95.80
39021;DHT22;25188;51.958;5.842;2023-02-15T04:23:07;3.60;95.90
39021;DHT22;25188;51.958;5.842;2023-02-15T04:25:51;3.70;95.90
39021;DHT22;25188;51.958;5.842;2023-02-15T04:28:17;3.60;95.90
39021;DHT22;25188;51.958;5.842;2023-02-15T04:30:43;3.60;95.90
39021;DHT22;25188;51.958;5.842;2023-02-15T04:33:08;3.60;96.00
39021;DHT22;25188;51.958;5.842;2023-02-15T04:35:34;3.50;96.00
39021;DHT22;25188;51.958;5.842;2023-02-15T04:37:59;3.50;96.10
39021;DHT22;25188;51.958;5.842;2023-02-15T04:40:25;3.50;96.10
39021;DHT22;25188;51.958;5.842;2023-02-15T04:42:51;3.50;96.20
39021;DHT22;25188;51.958;5.842;2023-02-15T04:45:17;3.50;96.30
39021;DHT22;25188;51.958;5.842;2023-02-15T04:47:43;3.50;96.30
39021;DHT22;25188;51.958;5.842;2023-02-15T04:50:09;3.40;96.30
39021;DHT22;25188;51.958;5.842;2023-02-15T04:52:35;3.40;96.40
39021;DHT22;25188;51.958;5.842;2023-02-15T04:55:01;3.50;96.40
39021;DHT22;25188;51.958;5.842;2023-02-15T04:57:27;3.40;96.50
39021;DHT22;25188;51.958;5.842;2023-02-15T04:59:52;3.40;96.50
39021;DHT22;25188;51.958;5.842;2023-02-15T05:02:18;3.40;96.60
39021;DHT22;25188;51.958;5.842;2023-02-15T05:04:44;3.30;96.70
39021;DHT22;25188;51.958;5.842;2023-02-15T05:07:09;3.30;96.70
39021;DHT22;25188;51.958;5.842;2023-02-15T05:09:35;3.30;96.80
39021;DHT22;25188;51.958;5.842;2023-02-15T05:12:01;3.40;96.90
39021;DHT22;25188;51.958;5.842;2023-02-15T05:14:26;3.30;96.90
39021;DHT22;25188;51.958;5.842;2023-02-15T05:16:52;3.30;96.90
39021;DHT22;25188;51.958;5.842;2023-02-15T05:19:19;3.30;96.90
39021;DHT22;25188;51.958;5.842;2023-02-15T05:21:45;3.40;97.00
39021;DHT22;25188;51.958;5.842;2023-02-15T05:24:10;3.20;97.00
39021;DHT22;25188;51.958;5.842;2023-02-15T05:26:55;3.20;97.10
39021;DHT22;25188;51.958;5.842;2023-02-15T05:29:39;3.20;97.10
39021;DHT22;25188;51.958;5.842;2023-02-15T05:32:04;3.10;97.00
39021;DHT22;25188;51.958;5.842;2023-02-15T05:34:30;3.10;97.10
39021;DHT22;25188;51.958;5.842;2023-02-15T05:36:56;3.10;97.10
39021;DHT22;25188;51.958;5.842;2023-02-15T05:39:21;3.10;97.10
39021;DHT22;25188;51.958;5.842;2023-02-15T05:41:47;3.00;97.10
39021;DHT22;25188;51.958;5.842;2023-02-15T05:44:13;3.10;97.20
39021;DHT22;25188;51.958;5.842;2023-02-15T05:46:38;3.10;97.30
39021;DHT22;25188;51.958;5.842;2023-02-15T05:49:04;3.20;97.30
39021;DHT22;25188;51.958;5.842;2023-02-15T05:51:29;3.00;97.30
39021;DHT22;25188;51.958;5.842;2023-02-15T05:53:55;3.00;97.40
39021;DHT22;25188;51.958;5.842;2023-02-15T05:56:21;3.00;97.40
39021;DHT22;25188;51.958;5.842;2023-02-15T05:58:47;3.00;97.50
39021;DHT22;25188;51.958;5.842;2023-02-15T06:01:18;3.00;97.50
39021;DHT22;25188;51.958;5.842;2023-02-15T06:03:45;3.00;97.60
39021;DHT22;25188;51.958;5.842;2023-02-15T06:06:10;3.00;97.60
39021;DHT22;25188;51.958;5.842;2023-02-15T06:08:37;3.00;97.60
39021;DHT22;25188;51.958;5.842;2023-02-15T06:11:03;2.90;97.60
39021;DHT22;25188;51.958;5.842;2023-02-15T06:13:29;3.00;97.70
39021;DHT22;25188;51.958;5.842;2023-02-15T06:15:55;2.90;97.70
39021;DHT22;25188;51.958;5.842;2023-02-15T06:18:21;2.90;97.70
39021;DHT22;25188;51.958;5.842;2023-02-15T06:20:47;3.00;97.70
39021;DHT22;25188;51.958;5.842;2023-02-15T06:23:13;2.90;97.80
39021;DHT22;25188;51.958;5.842;2023-02-15T06:25:39;2.80;97.80
39021;DHT22;25188;51.958;5.842;2023-02-15T06:28:04;2.80;97.80
39021;DHT22;25188;51.958;5.842;2023-02-15T06:30:30;2.80;97.90
39021;DHT22;25188;51.958;5.842;2023-02-15T06:32:56;2.80;97.90
39021;DHT22;25188;51.958;5.842;2023-02-15T06:35:22;2.80;98.00
39021;DHT22;25188;51.958;5.842;2023-02-15T06:37:48;2.80;98.10
39021;DHT22;25188;51.958;5.842;2023-02-15T06:40:14;2.80;98.00
39021;DHT22;25188;51.958;5.842;2023-02-15T06:42:41;2.80;98.30
39021;DHT22;25188;51.958;5.842;2023-02-15T06:45:07;2.80;98.00
39021;DHT22;25188;51.958;5.842;2023-02-15T06:47:33;2.70;98.00
39021;DHT22;25188;51.958;5.842;2023-02-15T06:49:58;2.80;98.10
39021;DHT22;25188;51.958;5.842;2023-02-15T06:52:24;2.70;98.10
39021;DHT22;25188;51.958;5.842;2023-02-15T06:54:50;2.70;98.20
39021;DHT22;25188;51.958;5.842;2023-02-15T06:57:16;2.70;98.20
39021;DHT22;25188;51.958;5.842;2023-02-15T06:59:41;2.70;98.20
39021;DHT22;25188;51.958;5.842;2023-02-15T07:02:08;2.70;98.30
39021;DHT22;25188;51.958;5.842;2023-02-15T07:04:34;2.70;98.30
39021;DHT22;25188;51.958;5.842;2023-02-15T07:07:00;2.70;98.30
39021;DHT22;25188;51.958;5.842;2023-02-15T07:09:26;2.70;98.40
39021;DHT22;25188;51.958;5.842;2023-02-15T07:11:51;2.70;98.50
39021;DHT22;25188;51.958;5.842;2023-02-15T07:14:35;2.70;98.50
39021;DHT22;25188;51.958;5.842;2023-02-15T07:17:01;2.70;98.60
39021;DHT22;25188;51.958;5.842;2023-02-15T07:19:26;2.70;98.70
39021;DHT22;25188;51.958;5.842;2023-02-15T07:21:52;2.70;98.70
39021;DHT22;25188;51.958;5.842;2023-02-15T07:24:18;2.70;98.70
39021;DHT22;25188;51.958;5.842;2023-02-15T07:26:43;2.80;98.90
39021;DHT22;25188;51.958;5.842;2023-02-15T07:29:09;2.80;98.90
39021;DHT22;25188;51.958;5.842;2023-02-15T07:31:34;2.80;98.90
39021;DHT22;25188;51.958;5.842;2023-02-15T07:34:00;2.80;99.00
39021;DHT22;25188;51.958;5.842;2023-02-15T07:36:26;2.90;99.10
39021;DHT22;25188;51.958;5.842;2023-02-15T07:38:51;2.90;99.20
39021;DHT22;25188;51.958;5.842;2023-02-15T07:41:18;3.00;99.20
39021;DHT22;25188;51.958;5.842;2023-02-15T07:43:45;3.00;99.30
39021;DHT22;25188;51.958;5.842;2023-02-15T07:46:13;3.10;99.40
39021;DHT22;25188;51.958;5.842;2023-02-15T07:48:40;3.00;99.30
39021;DHT22;25188;51.958;5.842;2023-02-15T07:51:08;3.20;99.40
39021;DHT22;25188;51.958;5.842;2023-02-15T07:53:34;3.20;99.30
39021;DHT22;25188;51.958;5.842;2023-02-15T07:56:06;3.30;99.30
39021;DHT22;25188;51.958;5.842;2023-02-15T07:58:33;3.30;99.30
39021;DHT22;25188;51.958;5.842;2023-02-15T08:03:43;3.50;99.30
39021;DHT22;25188;51.958;5.842;2023-02-15T08:06:09;3.50;99.20
39021;DHT22;25188;51.958;5.842;2023-02-15T08:08:37;3.50;99.20
39021;DHT22;25188;51.958;5.842;2023-02-15T08:16:37;3.70;99.30
39021;DHT22;25188;51.958;5.842;2023-02-15T08:19:16;3.70;99.30
39021;DHT22;25188;51.958;5.842;2023-02-15T08:21:44;3.80;99.30
39021;DHT22;25188;51.958;5.842;2023-02-15T08:24:12;3.90;99.30
39021;DHT22;25188;51.958;5.842;2023-02-15T08:26:39;3.90;99.20
39021;DHT22;25188;51.958;5.842;2023-02-15T08:29:05;3.90;99.20
39021;DHT22;25188;51.958;5.842;2023-02-15T08:31:32;4.00;99.20
39021;DHT22;25188;51.958;5.842;2023-02-15T08:33:58;4.10;99.30
39021;DHT22;25188;51.958;5.842;2023-02-15T08:36:27;4.10;99.30
39021;DHT22;25188;51.958;5.842;2023-02-15T08:38:54;4.10;99.30
39021;DHT22;25188;51.958;5.842;2023-02-15T08:41:23;4.10;99.30
39021;DHT22;25188;51.958;5.842;2023-02-15T08:43:51;4.30;99.40
39021;DHT22;25188;51.958;5.842;2023-02-15T08:46:17;4.30;99.40
39021;DHT22;25188;51.958;5.842;2023-02-15T08:48:43;4.30;99.40
39021;DHT22;25188;51.958;5.842;2023-02-15T08:51:18;4.50;99.50
39021;DHT22;25188;51.958;5.842;2023-02-15T08:53:47;4.60;99.50
39021;DHT22;25188;51.958;5.842;2023-02-15T08:56:16;4.80;99.60
39021;DHT22;25188;51.958;5.842;2023-02-15T08:58:42;4.80;99.50
39021;DHT22;25188;51.958;5.842;2023-02-15T09:01:16;4.80;99.50
39021;DHT22;25188;51.958;5.842;2023-02-15T09:03:44;4.90;99.50
39021;DHT22;25188;51.958;5.842;2023-02-15T09:06:10;5.10;99.50
39021;DHT22;25188;51.958;5.842;2023-02-15T09:08:36;5.10;99.50
39021;DHT22;25188;51.958;5.842;2023-02-15T09:11:10;5.30;99.60
39021;DHT22;25188;51.958;5.842;2023-02-15T09:13:36;5.30;99.60
39021;DHT22;25188;51.958;5.842;2023-02-15T09:16:04;5.40;99.60
39021;DHT22;25188;51.958;5.842;2023-02-15T09:18:32;5.50;99.60
39021;DHT22;25188;51.958;5.842;2023-02-15T09:21:14;5.70;99.50
39021;DHT22;25188;51.958;5.842;2023-02-15T09:23:41;5.80;99.50
39021;DHT22;25188;51.958;5.842;2023-02-15T09:26:09;5.90;99.30
39021;DHT22;25188;51.958;5.842;2023-02-15T09:28:35;6.00;99.20
39021;DHT22;25188;51.958;5.842;2023-02-15T09:33:37;6.20;98.90
39021;DHT22;25188;51.958;5.842;2023-02-15T09:36:04;6.30;98.80
39021;DHT22;25188;51.958;5.842;2023-02-15T09:38:30;6.40;98.70
39021;DHT22;25188;51.958;5.842;2023-02-15T09:41:26;6.50;98.60
39021;DHT22;25188;51.958;5.842;2023-02-15T09:47:31;6.70;98.10
39021;DHT22;25188;51.958;5.842;2023-02-15T10:01:30;7.50;97.50
39021;DHT22;25188;51.958;5.842;2023-02-15T10:07:35;8.00;97.50
39021;DHT22;25188;51.958;5.842;2023-02-15T10:10:33;8.50;97.40
39021;DHT22;25188;51.958;5.842;2023-02-15T10:23:45;11.50;98.50
39021;DHT22;25188;51.958;5.842;2023-02-15T10:26:19;12.10;98.90
39021;DHT22;25188;51.958;5.842;2023-02-15T10:28:48;12.80;98.40
39021;DHT22;25188;51.958;5.842;2023-02-15T10:31:41;13.60;97.70
39021;DHT22;25188;51.958;5.842;2023-02-15T10:34:16;14.30;95.70
39021;DHT22;25188;51.958;5.842;2023-02-15T10:45:28;16.80;82.60
39021;DHT22;25188;51.958;5.842;2023-02-15T10:48:21;16.90;78.20
39021;DHT22;25188;51.958;5.842;2023-02-15T10:50:54;17.30;73.80
39021;DHT22;25188;51.958;5.842;2023-02-15T11:02:25;18.40;65.60
39021;DHT22;25188;51.958;5.842;2023-02-15T11:07:43;19.40;63.20
39021;DHT22;25188;51.958;5.842;2023-02-15T11:12:45;19.90;58.70
39021;DHT22;25188;51.958;5.842;2023-02-15T11:17:50;20.10;56.50
39021;DHT22;25188;51.958;5.842;2023-02-15T11:20:18;20.30;55.00
39021;DHT22;25188;51.958;5.842;2023-02-15T11:22:49;20.60;54.60
39021;DHT22;25188;51.958;5.842;2023-02-15T11:25:32;20.90;54.20
39021;DHT22;25188;51.958;5.842;2023-02-15T11:28:00;21.10;53.30
39021;DHT22;25188;51.958;5.842;2023-02-15T11:30:42;21.30;52.70
39021;DHT22;25188;51.958;5.842;2023-02-15T11:33:20;21.60;51.60
39021;DHT22;25188;51.958;5.842;2023-02-15T11:35:52;22.10;51.30
39021;DHT22;25188;51.958;5.842;2023-02-15T11:38:22;22.40;49.80
39021;DHT22;25188;51.958;5.842;2023-02-15T11:41:12;22.60;49.30
39021;DHT22;25188;51.958;5.842;2023-02-15T11:43:50;22.80;48.20
39021;DHT22;25188;51.958;5.842;2023-02-15T11:46:19;23.00;48.40
39021;DHT22;25188;51.958;5.842;2023-02-15T11:48:46;23.20;47.70
39021;DHT22;25188;51.958;5.842;2023-02-15T11:51:15;23.40;46.90
39021;DHT22;25188;51.958;5.842;2023-02-15T11:53:42;23.60;46.30
39021;DHT22;25188;51.958;5.842;2023-02-15T11:56:22;23.60;45.50
39021;DHT22;25188;51.958;5.842;2023-02-15T11:58:56;23.20;45.20
39021;DHT22;25188;51.958;5.842;2023-02-15T12:01:44;23.10;44.60
39021;DHT22;25188;51.958;5.842;2023-02-15T12:04:20;22.80;44.50
39021;DHT22;25188;51.958;5.842;2023-02-15T12:07:14;22.60;44.40
39021;DHT22;25188;51.958;5.842;2023-02-15T12:12:26;22.40;44.50
39021;DHT22;25188;51.958;5.842;2023-02-15T12:14:57;22.50;44.60
39021;DHT22;25188;51.958;5.842;2023-02-15T12:17:32;22.50;44.80
39021;DHT22;25188;51.958;5.842;2023-02-15T12:20:05;22.60;44.80
39021;DHT22;25188;51.958;5.842;2023-02-15T12:22:34;22.90;44.50
39021;DHT22;25188;51.958;5.842;2023-02-15T12:25:04;22.90;44.40
39021;DHT22;25188;51.958;5.842;2023-02-15T12:27:45;23.00;44.20
39021;DHT22;25188;51.958;5.842;2023-02-15T12:33:02;23.40;43.80
39021;DHT22;25188;51.958;5.842;2023-02-15T12:35:33;23.50;43.30
39021;DHT22;25188;51.958;5.842;2023-02-15T12:38:26;23.50;43.20
39021;DHT22;25188;51.958;5.842;2023-02-15T12:41:03;23.60;43.00
39021;DHT22;25188;51.958;5.842;2023-02-15T12:43:35;23.80;43.00
39021;DHT22;25188;51.958;5.842;2023-02-15T12:46:20;24.10;42.80
39021;DHT22;25188;51.958;5.842;2023-02-15T12:48:46;24.40;42.40
39021;DHT22;25188;51.958;5.842;2023-02-15T12:51:15;24.60;42.30
39021;DHT22;25188;51.958;5.842;2023-02-15T12:53:41;24.80;42.10
39021;DHT22;25188;51.958;5.842;2023-02-15T12:56:08;25.10;41.90
39021;DHT22;25188;51.958;5.842;2023-02-15T12:58:36;25.30;41.30
39021;DHT22;25188;51.958;5.842;2023-02-15T13:03:35;25.20;41.20
39021;DHT22;25188;51.958;5.842;2023-02-15T13:06:03;25.30;40.60
39021;DHT22;25188;51.958;5.842;2023-02-15T13:08:35;25.40;40.30
39021;DHT22;25188;51.958;5.842;2023-02-15T13:11:09;25.60;40.30
39021;DHT22;25188;51.958;5.842;2023-02-15T13:13:47;25.70;39.70
39021;DHT22;25188;51.958;5.842;2023-02-15T13:16:16;25.70;39.30
39021;DHT22;25188;51.958;5.842;2023-02-15T13:18:46;25.40;39.30
39021;DHT22;25188;51.958;5.842;2023-02-15T13:21:22;25.00;39.50
39021;DHT22;25188;51.958;5.842;2023-02-15T13:24:50;24.80;39.80
39021;DHT22;25188;51.958;5.842;2023-02-15T13:26:52;24.40;39.90
39021;DHT22;25188;51.958;5.842;2023-02-15T13:29:31;23.90;40.00
39021;DHT22;25188;51.958;5.842;2023-02-15T13:32:19;23.50;40.40
39021;DHT22;25188;51.958;5.842;2023-02-15T13:34:46;23.20;40.90
39021;DHT22;25188;51.958;5.842;2023-02-15T13:48:35;22.40;41.80
39021;DHT22;25188;51.958;5.842;2023-02-15T13:51:22;22.20;42.20
39021;DHT22;25188;51.958;5.842;2023-02-15T14:16:30;19.80;45.00
39021;DHT22;25188;51.958;5.842;2023-02-15T14:19:38;19.60;45.40
39021;DHT22;25188;51.958;5.842;2023-02-15T14:22:26;19.20;46.10
39021;DHT22;25188;51.958;5.842;2023-02-15T14:28:03;18.70;47.00
39021;DHT22;25188;51.958;5.842;2023-02-15T14:30:37;18.50;47.60
39021;DHT22;25188;51.958;5.842;2023-02-15T14:33:18;18.40;47.90
39021;DHT22;25188;51.958;5.842;2023-02-15T14:35:49;18.30;48.10
39021;DHT22;25188;51.958;5.842;2023-02-15T14:38:21;18.30;48.40
39021;DHT22;25188;51.958;5.842;2023-02-15T14:41:16;18.40;48.50
39021;DHT22;25188;51.958;5.842;2023-02-15T14:49:30;18.40;48.80
39021;DHT22;25188;51.958;5.842;2023-02-15T14:51:57;18.40;49.10
39021;DHT22;25188;51.958;5.842;2023-02-15T14:59:50;18.30;49.40
39021;DHT22;25188;51.958;5.842;2023-02-15T15:02:44;18.20;49.60
39021;DHT22;25188;51.958;5.842;2023-02-15T15:13:33;17.50;50.40
39021;DHT22;25188;51.958;5.842;2023-02-15T15:18:03;17.20;51.00
39021;DHT22;25188;51.958;5.842;2023-02-15T15:21:02;17.10;51.30
39021;DHT22;25188;51.958;5.842;2023-02-15T15:23:40;16.90;51.60
39021;DHT22;25188;51.958;5.842;2023-02-15T15:26:28;16.70;51.80
39021;DHT22;25188;51.958;5.842;2023-02-15T15:28:56;16.60;52.10
39021;DHT22;25188;51.958;5.842;2023-02-15T15:31:45;16.40;52.20
39021;DHT22;25188;51.958;5.842;2023-02-15T15:35:02;16.30;52.70
39021;DHT22;25188;51.958;5.842;2023-02-15T15:51:02;15.50;54.10
39021;DHT22;25188;51.958;5.842;2023-02-15T15:53:34;15.40;54.40
39021;DHT22;25188;51.958;5.842;2023-02-15T15:56:06;15.40;54.60
39021;DHT22;25188;51.958;5.842;2023-02-15T15:58:35;15.30;54.80
39021;DHT22;25188;51.958;5.842;2023-02-15T16:01:09;15.20;55.20
39021;DHT22;25188;51.958;5.842;2023-02-15T16:03:34;15.10;55.50
39021;DHT22;25188;51.958;5.842;2023-02-15T16:06:01;15.10;55.70
39021;DHT22;25188;51.958;5.842;2023-02-15T16:08:33;14.90;55.80
39021;DHT22;25188;51.958;5.842;2023-02-15T16:11:07;14.80;57.00
39021;DHT22;25188;51.958;5.842;2023-02-15T16:13:33;14.70;56.50
39021;DHT22;25188;51.958;5.842;2023-02-15T16:15:59;14.60;56.70
39021;DHT22;25188;51.958;5.842;2023-02-15T16:18:27;14.50;56.90
39021;DHT22;25188;51.958;5.842;2023-02-15T16:20:55;14.40;57.20
39021;DHT22;25188;51.958;5.842;2023-02-15T16:29:17;14.10;58.00
39021;DHT22;25188;51.958;5.842;2023-02-15T16:31:56;13.90;58.20
39021;DHT22;25188;51.958;5.842;2023-02-15T16:34:22;13.90;58.30
39021;DHT22;25188;51.958;5.842;2023-02-15T16:36:47;13.90;58.50
39021;DHT22;25188;51.958;5.842;2023-02-15T16:39:19;13.80;58.70
39021;DHT22;25188;51.958;5.842;2023-02-15T16:41:45;13.70;59.10
39021;DHT22;25188;51.958;5.842;2023-02-15T16:44:17;13.60;59.30
39021;DHT22;25188;51.958;5.842;2023-02-15T16:46:49;13.50;59.50
39021;DHT22;25188;51.958;5.842;2023-02-15T16:49:20;13.50;59.80
39021;DHT22;25188;51.958;5.842;2023-02-15T16:54:24;13.30;60.20
39021;DHT22;25188;51.958;5.842;2023-02-15T16:56:51;13.20;60.30
39021;DHT22;25188;51.958;5.842;2023-02-15T16:59:26;13.20;60.60
39021;DHT22;25188;51.958;5.842;2023-02-15T17:01:53;13.10;60.80
39021;DHT22;25188;51.958;5.842;2023-02-15T17:07:18;12.90;61.10
39021;DHT22;25188;51.958;5.842;2023-02-15T17:09:52;12.90;61.30
39021;DHT22;25188;51.958;5.842;2023-02-15T17:15:02;12.60;61.50
39021;DHT22;25188;51.958;5.842;2023-02-15T17:17:31;12.60;61.30
39021;DHT22;25188;51.958;5.842;2023-02-15T17:19:57;12.50;61.50
39021;DHT22;25188;51.958;5.842;2023-02-15T17:22:25;12.40;62.10
39021;DHT22;25188;51.958;5.842;2023-02-15T17:24:59;12.30;62.30
39021;DHT22;25188;51.958;5.842;2023-02-15T17:27:27;12.20;62.50
39021;DHT22;25188;51.958;5.842;2023-02-15T17:29:58;12.20;62.70
39021;DHT22;25188;51.958;5.842;2023-02-15T17:32:26;12.10;62.80
39021;DHT22;25188;51.958;5.842;2023-02-15T17:35:17;12.10;62.90
39021;DHT22;25188;51.958;5.842;2023-02-15T17:37:46;12.00;63.20
39021;DHT22;25188;51.958;5.842;2023-02-15T17:40:31;11.90;63.30
39021;DHT22;25188;51.958;5.842;2023-02-15T17:42:57;11.80;63.60
39021;DHT22;25188;51.958;5.842;2023-02-15T17:45:26;11.80;63.80
39021;DHT22;25188;51.958;5.842;2023-02-15T17:47:52;11.70;63.80
39021;DHT22;25188;51.958;5.842;2023-02-15T17:50:23;11.60;63.90
39021;DHT22;25188;51.958;5.842;2023-02-15T17:52:50;11.60;64.00
39021;DHT22;25188;51.958;5.842;2023-02-15T17:55:20;11.60;64.20
39021;DHT22;25188;51.958;5.842;2023-02-15T17:58:21;11.50;64.50
39021;DHT22;25188;51.958;5.842;2023-02-15T18:00:48;11.40;64.60
39021;DHT22;25188;51.958;5.842;2023-02-15T18:06:23;11.30;64.50
39021;DHT22;25188;51.958;5.842;2023-02-15T18:09:10;11.20;64.30
39021;DHT22;25188;51.958;5.842;2023-02-15T18:11:55;11.20;64.60
39021;DHT22;25188;51.958;5.842;2023-02-15T18:14:20;11.10;64.80
39021;DHT22;25188;51.958;5.842;2023-02-15T18:16:46;11.00;65.20
39021;DHT22;25188;51.958;5.842;2023-02-15T18:19:18;10.90;65.40
39021;DHT22;25188;51.958;5.842;2023-02-15T18:21:46;10.90;66.30
39021;DHT22;25188;51.958;5.842;2023-02-15T18:24:20;10.80;65.90
39021;DHT22;25188;51.958;5.842;2023-02-15T18:26:46;10.80;66.30
39021;DHT22;25188;51.958;5.842;2023-02-15T18:29:12;10.70;66.50
39021;DHT22;25188;51.958;5.842;2023-02-15T18:31:38;10.60;66.80
39021;DHT22;25188;51.958;5.842;2023-02-15T18:34:05;10.60;67.10
39021;DHT22;25188;51.958;5.842;2023-02-15T18:36:39;10.50;67.40
39021;DHT22;25188;51.958;5.842;2023-02-15T18:41:52;10.40;67.80
39021;DHT22;25188;51.958;5.842;2023-02-15T18:44:18;10.40;68.10
39021;DHT22;25188;51.958;5.842;2023-02-15T18:46:43;10.30;68.20
39021;DHT22;25188;51.958;5.842;2023-02-15T18:49:09;10.20;68.40
39021;DHT22;25188;51.958;5.842;2023-02-15T18:51:34;10.20;68.70
39021;DHT22;25188;51.958;5.842;2023-02-15T18:54:07;10.10;68.90
39021;DHT22;25188;51.958;5.842;2023-02-15T18:56:36;10.00;69.10
39021;DHT22;25188;51.958;5.842;2023-02-15T18:59:02;10.00;69.30
39021;DHT22;25188;51.958;5.842;2023-02-15T19:01:28;9.90;69.40
39021;DHT22;25188;51.958;5.842;2023-02-15T19:03:54;9.80;69.60
39021;DHT22;25188;51.958;5.842;2023-02-15T19:06:20;9.80;69.80
39021;DHT22;25188;51.958;5.842;2023-02-15T19:08:51;9.80;70.20
39021;DHT22;25188;51.958;5.842;2023-02-15T19:11:19;9.70;70.10
39021;DHT22;25188;51.958;5.842;2023-02-15T19:13:48;9.60;70.30